Latest Weather Observations for Pearce

IDW60801

Issued at 9:54 pm WST Saturday 23 January 2021 (issued every 10 minutes, with the page automatically refreshed every 10 minutes)

About weather observations | Map of weather stations | Latest weather observations for WA | Other Formats
Station Details ID: 009053 Name: PEARCE RAAF Lat: -31.67 Lon: 116.02 Height: 40.0 m
Data from the previous 72 hours. | See also: Recent months at Pearce
Date/Time
WST
Temp
°C
App
Temp
°C
Dew
Point
°C
Rel
Hum
%
Delta-T
°C
Wind Press
QNH
hPa
Press
MSL
hPa
Rain since
9am
mm
Dir  Spd
km/h
Gust
km/h
Spd
kts
Gust
kts
23/09:30pm 21.7 19.6 14.8 65 4.1 WSW 19 22 10 12 1006.0 1005.8 0.0
23/09:00pm 21.7 19.8 15.3 67 3.8 WSW 19 24 10 13 1005.8 1005.6 0.0
23/08:30pm 21.9 20.1 15.5 67 3.8 WSW 19 26 10 14 1005.6 1005.4 0.0
23/08:00pm 22.1 20.4 15.7 67 3.9 WSW 19 24 10 13 1005.1 1004.9 0.0
23/07:30pm 22.2 20.8 15.5 66 4.0 WSW 17 28 9 15 1005.0 1004.8 0.0
23/07:00pm 22.5 19.8 15.6 65 4.2 SW 24 32 13 17 1004.6 1004.4 0.0
23/06:30pm 23.2 20.3 16.0 64 4.4 SW 26 32 14 17 1004.2 1004.0 0.0
23/06:00pm 23.3 20.6 15.6 62 4.7 WSW 24 35 13 19 1003.8 1003.6 0.0
23/05:30pm 24.9 22.2 15.5 56 5.7 WSW 24 30 13 16 1003.2 1003.0 0.0
23/05:00pm 25.8 22.7 15.5 53 6.3 SW 26 35 14 19 1002.7 1002.5 0.0
23/04:30pm 26.5 23.5 15.8 51 6.5 SW 26 37 14 20 1002.5 1002.3 0.0
23/04:00pm 26.9 24.3 15.9 51 6.8 WSW 24 35 13 19 1002.8 1002.6 0.0
23/03:30pm 26.6 23.1 15.6 50 6.7 WSW 28 35 15 19 1002.7 1002.5 0.0
23/03:00pm 26.5 22.9 15.2 49 6.9 SW 28 39 15 21 1002.7 1002.5 0.0
23/02:30pm 28.0 25.3 15.6 46 7.6 WSW 24 35 13 19 1002.7 1002.5 0.0
23/02:00pm 28.5 26.0 16.1 47 7.7 SW 24 37 13 20 1002.7 1002.5 0.0
23/01:30pm 27.3 24.7 16.0 50 7.0 SW 24 41 13 22 1002.6 1002.4 0.0
23/01:00pm 27.2 24.1 16.5 52 6.7 WSW 28 35 15 19 1002.7 1002.5 0.0
23/12:30pm 27.5 24.5 16.8 52 6.7 WSW 28 35 15 19 1002.6 1002.4 0.0
23/12:00pm 27.6 25.0 16.9 52 6.7 SW 26 39 14 21 1002.8 1002.6 0.0
23/11:30am 28.0 25.7 17.5 52 6.6 SW 26 39 14 21 1002.9 1002.7 0.0
23/11:00am 27.8 25.1 17.6 53 6.5 WSW 28 37 15 20 1002.9 1002.7 0.0
23/10:30am 28.1 26.1 16.4 49 7.3 SW 22 33 12 18 1002.7 1002.5 0.0
23/10:00am 28.4 26.6 16.0 47 7.7 WSW 20 32 11 17 1002.5 1002.3 0.0
23/09:30am 28.0 26.4 16.0 48 7.4 WSW 19 28 10 15 1002.3 1002.1 0.0
23/09:00am 27.1 28.0 17.6 56 6.0 NW 9 13 5 7 1002.2 1002.0 0.0
23/08:30am 25.1 26.5 17.3 62 4.9 W 6 11 3 6 1002.4 1002.2 0.0
23/08:00am 23.5 24.9 17.3 68 3.9 NW 6 9 3 5 1002.2 1002.0 0.0
23/07:30am 21.7 21.7 15.1 66 3.9 NW 9 11 5 6 1002.0 1001.8 0.0
23/07:00am 21.2 22.2 15.3 69 3.5 NE 4 6 2 3 1001.6 1001.4 0.0
23/06:30am 19.6 19.8 14.8 74 2.8 NNE 7 9 4 5 1001.9 1001.7 0.0
23/06:00am 18.4 18.2 13.7 74 2.7 NNE 7 13 4 7 1001.3 1001.0 0.0
23/05:30am 16.7 16.4 13.2 80 2.0 NNW 7 13 4 7 1001.5 1001.3 0.0
23/05:00am 19.0 19.9 14.1 73 2.8 ENE 2 6 1 3 1000.6 1000.3 0.0
23/04:30am 16.4 16.6 12.9 80 1.9 WSW 4 7 2 4 1000.3 1000.0 0.0
23/04:00am 16.1 15.6 12.7 80 1.9 NNW 7 9 4 5 1000.3 1000.0 0.0
23/03:30am 16.3 15.8 12.7 79 2.0 NW 7 13 4 7 1000.5 1000.2 0.0
23/03:00am 17.7 16.9 13.0 74 2.7 N 9 11 5 6 1000.7 1000.4 0.0
23/02:30am 18.4 17.6 13.9 75 2.6 N 11 13 6 7 1000.9 1000.6 0.0
23/02:00am 17.7 17.4 13.2 75 2.5 NNW 7 9 4 5 1000.9 1000.6 0.0
23/01:30am 19.3 18.5 14.1 72 3.0 N 11 13 6 7 1001.0 1000.7 0.0
23/01:00am 18.1 17.5 13.6 75 2.6 ESE 9 9 5 5 1001.0 1000.7 0.0
23/12:30am 18.9 19.9 13.1 69 3.3 CALM 0 2 0 1 1001.3 1001.0 0.0
23/12:00am 21.5 21.6 13.9 62 4.4 ESE 6 7 3 4 1001.9 1001.7 0.0
 
Date/Time
WST
Temp
°C
App
Temp
°C
Dew
Point
°C
Rel
Hum
%
Delta-T
°C
Wind Press
QNH
hPa
Press
MSL
hPa
Rain since
9am
mm
Dir  Spd
km/h
Gust
km/h
Spd
kts
Gust
kts
22/11:30pm 21.8 22.0 14.7 64 4.2 SE 7 9 4 5 1001.9 1001.7 0.0
22/11:00pm 20.2 19.9 13.4 65 3.9 SW 7 9 4 5 1002.1 1001.9 0.0
22/10:30pm 21.8 21.5 13.2 58 4.9 S 7 9 4 5 1002.1 1001.9 0.0
22/10:00pm 23.6 23.6 14.3 56 5.5 SE 7 9 4 5 1002.1 1001.9 0.0
22/09:30pm 23.1 22.9 13.6 55 5.5 S 7 9 4 5 1002.3 1002.1 0.0
22/09:00pm 23.2 22.5 13.1 53 5.9 S 9 11 5 6 1002.4 1002.2 0.0
22/08:30pm 24.5 23.0 13.1 49 6.6 SSW 13 17 7 9 1002.5 1002.3 0.0
22/08:00pm 25.7 24.0 12.5 44 7.7 SSW 13 19 7 10 1002.2 1002.0 0.0
22/07:30pm 26.8 24.2 12.1 40 8.5 SW 17 24 9 13 1002.3 1002.1 0.0
22/07:00pm 28.2 25.1 12.1 37 9.4 SW 20 26 11 14 1002.2 1002.0 0.0
22/06:30pm 29.0 24.2 11.6 34 10.1 SSW 28 35 15 19 1001.8 1001.6 0.0
22/06:00pm 30.3 26.2 12.7 34 10.5 SSW 26 33 14 18 1001.8 1001.6 0.0
22/05:30pm 31.2 27.4 13.5 34 10.6 SSW 26 33 14 18 1001.7 1001.5 0.0
22/05:00pm 30.5 26.0 13.7 35 10.1 SSW 30 35 16 19 1001.7 1001.5 0.0
22/04:30pm 31.7 27.2 13.9 34 10.8 SSW 30 39 16 21 1001.5 1001.3 0.0
22/04:00pm 34.6 29.2 12.3 26 13.4 SSW 32 39 17 21 1001.3 1001.0 0.0
22/03:30pm 37.0 32.1 12.4 23 14.9 SSW 30 35 16 19 1001.1 1000.8 0.0
22/03:00pm 37.2 32.3 12.6 23 15.0 SW 30 37 16 20 1001.1 1000.8 0.0
22/02:49pm 37.5 32.9 12.2 22 15.3 SW 28 41 15 22 1001.2 1000.9 0.0
22/02:30pm 37.1 34.9 8.0 17 16.5 SSW 9 20 5 11 1001.6 1001.4 0.0
22/02:00pm 38.1 35.6 9.6 18 16.7 SSW 13 24 7 13 1001.8 1001.6 0.0
22/01:30pm 36.4 34.7 9.8 20 15.5 ENE 9 17 5 9 1002.3 1002.1 0.0
22/01:00pm 36.3 35.0 11.2 22 14.9 N 9 13 5 7 1002.7 1002.5 0.0
22/12:30pm 34.3 32.9 10.8 24 13.7 W 9 19 5 10 1003.2 1003.0 0.0
22/12:00pm 34.2 32.9 11.4 25 13.5 WSW 9 17 5 9 1003.5 1003.3 0.0
22/11:30am 33.7 33.4 12.7 28 12.6 SW 6 13 3 7 1004.1 1003.9 0.0
22/11:00am 32.7 31.7 12.3 28 12.2 NNE 9 17 5 9 1004.5 1004.3 0.0
22/10:30am 30.9 29.0 11.8 31 11.2 E 13 19 7 10 1005.0 1004.8 0.0
22/10:00am 29.6 27.8 12.1 34 10.3 ENE 13 22 7 12 1005.5 1005.3 0.0
22/09:30am 28.2 25.2 12.5 37 9.2 E 20 28 11 15 1005.9 1005.7 0.0
22/09:00am 27.0 24.1 12.3 40 8.5 E 19 32 10 17 1006.2 1006.0 0.0
22/08:30am 25.8 22.4 12.6 44 7.6 ENE 22 35 12 19 1006.2 1006.0 0.0
22/08:00am 24.6 21.6 12.5 46 7.0 ESE 20 33 11 18 1006.6 1006.4 0.0
22/07:30am 22.8 19.8 12.7 53 5.8 ESE 20 39 11 21 1006.8 1006.6 0.0
22/07:00am 21.8 19.0 12.6 56 5.2 SE 19 32 10 17 1006.8 1006.6 0.0
22/06:30am 21.1 18.2 12.8 59 4.7 ESE 20 33 11 18 1006.8 1006.6 0.0
22/06:00am 20.7 17.4 12.7 60 4.5 ESE 22 33 12 18 1006.7 1006.5 0.0
22/05:30am 20.7 17.7 12.7 60 4.5 E 20 32 11 17 1006.8 1006.6 0.0
22/05:00am 20.8 17.9 12.8 60 4.6 E 20 35 11 19 1006.5 1006.3 0.0
22/04:30am 21.2 16.3 12.6 58 4.9 E 30 44 16 24 1006.2 1006.0 0.0
22/04:00am 21.6 17.1 12.7 57 5.1 ENE 28 41 15 22 1006.2 1006.0 0.0
22/03:30am 22.0 17.8 12.5 54 5.4 E 26 41 14 22 1006.3 1006.1 0.0
22/03:04am 22.5 18.0 12.7 54 5.6 E 28 46 15 25 1006.4 1006.2 0.0
22/03:00am 22.6 17.3 12.5 53 5.8 E 32 46 17 25 1006.5 1006.3 0.0
22/02:30am 23.3 17.5 12.6 51 6.1 E 35 57 19 31 1006.6 1006.4 0.0
22/02:01am 24.2 18.2 12.2 47 6.9 E 35 54 19 29 1006.8 1006.6 0.0
22/02:00am 24.2 17.9 12.2 47 6.9 E 37 54 20 29 1006.8 1006.6 0.0
22/01:38am 25.0 19.3 11.9 44 7.5 E 33 56 18 30 1006.8 1006.6 0.0
22/01:30am 25.2 18.4 12.1 44 7.5 E 39 54 21 29 1006.9 1006.7 0.0
22/01:00am 25.9 20.4 12.0 42 8.0 E 32 50 17 27 1007.0 1006.8 0.0
22/12:57am 26.0 21.0 12.1 42 8.0 E 30 50 16 27 1007.1 1006.9 0.0
22/12:30am 26.4 23.4 12.5 42 8.1 E 20 30 11 16 1007.3 1007.1 0.0
22/12:00am 27.1 25.2 13.1 42 8.2 E 15 33 8 18 1007.5 1007.3 0.0
 
Date/Time
WST
Temp
°C
App
Temp
°C
Dew
Point
°C
Rel
Hum
%
Delta-T
°C
Wind Press
QNH
hPa
Press
MSL
hPa
Rain since
9am
mm
Dir  Spd
km/h
Gust
km/h
Spd
kts
Gust
kts
21/11:30pm 25.7 26.3 15.4 53 6.2 SSW 6 11 3 6 1007.5 1007.3 0.0
21/11:00pm 21.8 22.7 16.5 72 3.2 SSW 7 9 4 5 1007.6 1007.4 0.0
21/10:30pm 23.6 25.2 16.9 66 4.1 SSW 4 7 2 4 1007.8 1007.6 0.0
21/10:00pm 24.7 25.8 16.7 61 4.9 SSW 6 7 3 4 1008.0 1007.8 0.0
21/09:30pm 25.1 27.5 17.1 61 5.0 CALM 0 0 0 0 1007.9 1007.7 0.0
21/09:00pm 25.3 26.2 16.7 59 5.3 SSW 7 7 4 4 1007.9 1007.7 0.0
21/08:30pm 25.4 25.8 16.3 57 5.6 S 9 13 5 7 1007.8 1007.6 0.0
21/08:00pm 26.4 26.0 16.3 53 6.2 S 13 17 7 9 1007.8 1007.6 0.0
21/07:30pm 27.2 25.4 15.9 50 6.9 SSW 20 24 11 13 1007.7 1007.5 0.0
21/07:00pm 28.9 27.2 18.1 52 6.9 SSW 24 32 13 17 1007.5 1007.3 0.0
21/06:30pm 30.3 27.2 14.4 38 9.7 SW 24 30 13 16 1007.2 1007.0 0.0
21/06:00pm 31.2 26.4 13.9 35 10.5 SSW 32 39 17 21 1007.0 1006.8 0.0
21/05:30pm 32.7 29.5 14.3 32 11.3 SW 24 30 13 16 1006.9 1006.7 0.0
21/05:00pm 32.8 29.3 14.4 33 11.3 SW 26 33 14 18 1006.8 1006.6 0.0
21/04:30pm 33.5 29.6 14.5 31 11.7 SW 28 37 15 20 1006.9 1006.7 0.0
21/04:00pm 34.5 30.2 14.4 30 12.4 SW 30 39 16 21 1007.0 1006.8 0.0
21/03:30pm 35.1 29.9 14.4 29 12.8 SW 35 43 19 23 1006.9 1006.7 0.0
21/03:00pm 36.1 33.1 14.7 28 13.4 SW 24 35 13 19 1007.1 1006.9 0.0
21/02:30pm 37.0 35.0 10.3 20 15.7 SSE 11 33 6 18 1007.3 1007.1 0.0
21/02:00pm 35.9 33.5 10.2 21 15.0 NE 13 22 7 12 1007.7 1007.5 0.0
21/01:30pm 35.7 32.3 10.7 22 14.7 ESE 19 30 10 16 1008.1 1007.9 0.0
21/01:00pm 35.8 33.6 12.1 24 14.2 SSE 15 26 8 14 1008.5 1008.3 0.0
21/12:30pm 34.9 33.8 12.0 25 13.7 SE 9 24 5 13 1009.0 1008.8 0.0
21/12:00pm 35.2 33.0 10.9 23 14.3 SE 13 22 7 12 1009.4 1009.2 0.0
21/11:30am 33.1 30.3 8.5 22 13.8 SSE 13 28 7 15 1009.8 1009.6 0.0
21/11:00am 32.3 28.5 9.2 24 13.1 SE 19 32 10 17 1010.2 1010.0 0.0
21/10:30am 32.0 29.5 12.3 30 11.7 SSE 17 24 9 13 1010.6 1010.4 0.0
21/10:00am 30.9 28.9 12.8 33 10.8 SE 15 22 8 12 1010.8 1010.6 0.0
21/09:30am 30.0 28.2 13.3 36 10.0 SE 15 20 8 11 1011.1 1010.9 0.0
21/09:00am 29.0 26.8 13.2 37 9.4 SE 17 20 9 11 1011.4 1011.2 0.2
21/08:30am 28.3 26.1 13.4 40 8.8 SE 17 24 9 13 1011.6 1011.4 0.2
21/08:00am 27.0 26.4 13.4 43 8.0 SSE 9 15 5 8 1011.6 1011.4 0.2
21/07:30am 25.5 24.2 13.7 48 7.0 SSE 13 20 7 11 1011.6 1011.4 0.2
21/07:00am 24.2 22.1 13.7 52 6.2 S 17 30 9 16 1011.6 1011.4 0.2
21/06:30am 23.8 22.7 14.2 55 5.7 S 13 19 7 10 1011.4 1011.2 0.2
21/06:00am 22.8 22.0 14.1 58 5.1 S 11 17 6 9 1011.2 1011.0 0.2
21/05:30am 22.7 22.1 14.5 60 4.8 SSE 11 17 6 9 1011.0 1010.8 0.2
21/05:00am 22.6 21.0 15.0 62 4.5 S 17 20 9 11 1010.8 1010.6 0.2
21/04:30am 22.9 21.9 15.5 63 4.4 S 15 19 8 10 1010.6 1010.4 0.2
21/04:00am 23.2 22.5 16.3 65 4.2 SSW 15 22 8 12 1010.3 1010.1 0.2
21/03:30am 20.2 21.9 18.5 90 1.1 WSW 7 9 4 5 1010.1 1009.9 0.2
21/03:00am 19.7 21.2 18.0 90 1.1 NNW 7 9 4 5 1010.0 1009.8 0.2
21/02:30am 19.6 21.0 17.7 89 1.2 N 7 9 4 5 1010.0 1009.8 0.2
21/02:00am 19.7 21.2 17.5 87 1.3 N 6 7 3 4 1010.1 1009.9 0.2
21/01:30am 21.0 22.8 18.8 87 1.4 N 7 9 4 5 1010.2 1010.0 0.2
21/01:00am 20.7 22.5 18.3 86 1.5 N 6 7 3 4 1010.3 1010.1 0.2
21/12:30am 21.4 24.4 18.4 83 1.9 CALM 0 0 0 0 1010.3 1010.1 0.2
21/12:00am 22.1 25.3 18.9 82 2.0 CALM 0 0 0 0 1010.2 1010.0 0.2
 
Date/Time
WST
Temp
°C
App
Temp
°C
Dew
Point
°C
Rel
Hum
%
Delta-T
°C
Wind Press
QNH
hPa
Press
MSL
hPa
Rain since
9am
mm
Dir  Spd
km/h
Gust
km/h
Spd
kts
Gust
kts
20/11:30pm 22.8 26.1 19.0 79 2.4 CALM 0 6 0 3 1010.3 1010.1 0.2
20/11:00pm 23.0 25.0 19.2 79 2.4 N 7 9 4 5 1010.4 1010.2 0.2
20/10:30pm 23.1 24.6 18.8 77 2.7 N 9 9 5 5 1010.4 1010.2 0.2
20/10:00pm 23.7 25.8 19.0 75 3.0 NNW 6 7 3 4 1010.6 1010.4 0.2

Other formats

Comma delimited format used in spreadsheet applications
http://www.bom.gov.au/fwo/IDW60801/IDW60801.94612.axf

JavaScript Object Notation format (JSON) in row-major order
http://www.bom.gov.au/fwo/IDW60801/IDW60801.94612.json

Data quality

Most of these data are generated automatically and are frequently updated. Quality checks on data are not normally performed. It is possible for incorrect values to appear. Refer to information at About Latest Weather Observations and please check the disclaimer before using these data.